Time;durP1;ratioP1;P1;durP2;ratioP2;P2;SDS_P1;SDS_P2;PMS_P1;PMS_P2;Temp;Humidity;BMP_temperature;BMP_pressure;BME280_temperature;BME280_humidity;BME280_pressure;Samples;Min_cycle;Max_cycle;Signal;HPM_P1;HPM_P2
2022/11/09 00:00:04;;;;;;;8.57;3.40;;;11.70;99.90;;;;;;5057175;28;20104;-72
2022/11/09 00:02:30;;;;;;;9.98;3.60;;;11.80;99.90;;;;;;5056667;28;20041;-70
2022/11/09 00:04:56;;;;;;;6.50;3.42;;;11.70;99.90;;;;;;5057194;28;20051;-70
2022/11/09 00:07:21;;;;;;;8.85;3.15;;;11.70;99.90;;;;;;5039377;28;20045;-72
2022/11/09 00:09:47;;;;;;;9.82;3.63;;;11.70;99.90;;;;;;5056596;28;20033;-72
2022/11/09 00:12:12;;;;;;;5.78;3.13;;;11.80;99.90;;;;;;5056904;28;20068;-72
2022/11/09 00:14:41;;;;;;;9.75;3.30;;;11.80;99.90;;;;;;5056813;28;20468;-72
2022/11/09 00:17:06;;;;;;;8.75;3.35;;;11.80;99.90;;;;;;5039072;28;20124;-71
2022/11/09 00:19:32;;;;;;;7.70;3.60;;;11.80;99.90;;;;;;5057209;28;20136;-72
2022/11/09 00:21:57;;;;;;;5.57;2.60;;;11.80;99.90;;;;;;5039141;28;20047;-73
2022/11/09 00:24:25;;;;;;;5.80;2.55;;;11.80;99.90;;;;;;5056345;28;20052;-71
2022/11/09 00:26:51;;;;;;;7.85;2.72;;;11.70;99.90;;;;;;5056593;28;20037;-73
2022/11/09 00:29:16;;;;;;;7.97;2.50;;;11.70;99.90;;;;;;5056375;28;20393;-72
2022/11/09 00:31:42;;;;;;;5.80;2.80;;;11.70;99.90;;;;;;5055819;28;20095;-71
2022/11/09 00:34:10;;;;;;;8.02;2.97;;;11.70;99.90;;;;;;5038676;28;20136;-70
2022/11/09 00:36:36;;;;;;;6.03;2.63;;;11.70;99.90;;;;;;5056538;28;20045;-71
2022/11/09 00:39:01;;;;;;;7.50;2.88;;;11.60;99.90;;;;;;5056316;28;20112;-71
2022/11/09 00:41:27;;;;;;;9.65;3.72;;;11.50;99.90;;;;;;5038443;28;20041;-70
2022/11/09 00:43:53;;;;;;;8.48;3.40;;;11.50;99.90;;;;;;5056366;28;20076;-71
2022/11/09 00:46:19;;;;;;;8.43;2.97;;;11.40;99.90;;;;;;5056260;28;20465;-72
2022/11/09 00:48:45;;;;;;;9.13;3.20;;;11.30;99.90;;;;;;5056631;28;20107;-71
2022/11/09 00:51:11;;;;;;;8.38;2.97;;;11.20;99.90;;;;;;5056294;28;20399;-72
2022/11/09 00:53:37;;;;;;;7.10;3.22;;;11.20;99.90;;;;;;5056047;28;20412;-72
2022/11/09 00:56:10;;;;;;;8.77;3.53;;;11.10;99.90;;;;;;5056027;28;20092;-72
2022/11/09 00:58:37;;;;;;;8.40;3.33;;;11.10;99.90;;;;;;5056084;28;20044;-71
2022/11/09 01:01:21;;;;;;;10.98;4.35;;;11.10;99.90;;;;;;5055658;28;20295;-72
2022/11/09 01:03:47;;;;;;;10.27;3.58;;;11.10;99.90;;;;;;5055947;28;20068;-71
2022/11/09 01:06:19;;;;;;;11.05;3.95;;;11.10;99.90;;;;;;5056295;28;20068;-71
2022/11/09 01:08:46;;;;;;;8.40;3.78;;;11.20;99.90;;;;;;5038239;28;20037;-72
2022/11/09 01:11:12;;;;;;;8.27;3.70;;;11.20;99.90;;;;;;5055678;28;20044;-71
2022/11/09 01:13:40;;;;;;;8.55;3.60;;;11.20;99.90;;;;;;5055867;28;20037;-73
2022/11/09 01:16:13;;;;;;;9.82;3.55;;;11.20;99.90;;;;;;5037602;28;20048;-70
2022/11/09 01:18:40;;;;;;;10.45;4.15;;;11.30;99.90;;;;;;5038337;28;20041;-72
2022/11/09 01:21:08;;;;;;;9.40;3.88;;;11.40;99.90;;;;;;5037904;28;20057;-72
2022/11/09 01:23:36;;;;;;;10.05;3.65;;;11.40;99.90;;;;;;5055534;28;20040;-71
2022/11/09 01:26:05;;;;;;;9.77;3.50;;;11.40;99.90;;;;;;5055537;28;20048;-71
2022/11/09 01:28:31;;;;;;;9.73;3.67;;;11.40;99.90;;;;;;5055779;28;20041;-71
2022/11/09 01:31:01;;;;;;;11.00;3.80;;;11.30;99.90;;;;;;5055399;28;20043;-72
2022/11/09 01:33:27;;;;;;;10.82;3.92;;;11.60;99.90;;;;;;5055371;28;20053;-71
2022/11/09 01:35:53;;;;;;;11.93;4.15;;;11.30;99.90;;;;;;5055620;28;20114;-72
2022/11/09 01:38:18;;;;;;;9.07;3.55;;;11.30;99.90;;;;;;5055337;28;20041;-71
2022/11/09 01:40:46;;;;;;;11.45;4.00;;;11.30;99.90;;;;;;5037691;28;20519;-72
2022/11/09 01:43:21;;;;;;;9.43;3.78;;;11.20;99.90;;;;;;5055401;28;20037;-72
2022/11/09 01:46:01;;;;;;;11.07;3.42;;;11.20;99.90;;;;;;5055103;28;20037;-71
2022/11/09 01:48:44;;;;;;;11.95;3.60;;;11.20;99.90;;;;;;5021092;28;20543;-72
2022/11/09 01:51:25;;;;;;;6.50;3.13;;;11.30;99.90;;;;;;5055190;28;20124;-72
2022/11/09 01:53:54;;;;;;;8.02;3.45;;;11.20;99.90;;;;;;5055108;28;20036;-72
2022/11/09 01:56:20;;;;;;;9.45;3.65;;;11.20;99.90;;;;;;5055041;28;20047;-73
2022/11/09 01:58:54;;;;;;;10.90;3.78;;;11.20;99.90;;;;;;5054709;28;20120;-71
2022/11/09 02:01:20;;;;;;;11.32;4.10;;;11.20;99.90;;;;;;5054768;28;20392;-71
2022/11/09 02:03:55;;;;;;;12.90;4.15;;;11.30;99.90;;;;;;5055013;28;20064;-71
2022/11/09 02:06:25;;;;;;;11.30;3.83;;;11.30;99.90;;;;;;5037424;28;20475;-72
2022/11/09 02:08:57;;;;;;;11.23;3.67;;;11.30;99.90;;;;;;5055007;28;20476;-71
2022/11/09 02:11:23;;;;;;;9.75;3.70;;;11.30;99.90;;;;;;5055438;28;20346;-72
2022/11/09 02:13:54;;;;;;;13.48;3.65;;;11.30;99.90;;;;;;5055041;28;20126;-72
2022/11/09 02:16:22;;;;;;;13.80;3.70;;;11.30;99.90;;;;;;5054670;28;20055;-73
2022/11/09 02:18:55;;;;;;;13.07;3.78;;;11.20;99.90;;;;;;5055082;28;20048;-72
2022/11/09 02:21:24;;;;;;;9.60;3.60;;;11.20;99.90;;;;;;5056402;28;20425;-71
2022/11/09 02:23:50;;;;;;;8.73;3.63;;;11.20;99.90;;;;;;5058979;28;20045;-71
2022/11/09 02:26:23;;;;;;;10.63;3.45;;;11.30;99.90;;;;;;5059502;28;20060;-71
2022/11/09 02:28:50;;;;;;;;;;;11.10;99.90;;;;;;5042321;28;20053;-72
2022/11/09 02:31:16;;;;;;;12.52;4.05;;;11.10;99.90;;;;;;5041102;28;19921;-72
2022/11/09 02:33:54;;;;;;;11.45;3.65;;;11.10;99.90;;;;;;5058531;28;20136;-73
2022/11/09 02:36:23;;;;;;;9.75;4.13;;;11.00;99.90;;;;;;5058548;28;20480;-73
2022/11/09 02:38:51;;;;;;;12.38;3.63;;;11.00;99.90;;;;;;5058643;28;20407;-71
2022/11/09 02:41:19;;;;;;;9.73;3.58;;;11.00;99.90;;;;;;5040858;28;20040;-73
2022/11/09 02:43:44;;;;;;;10.75;3.58;;;11.00;99.90;;;;;;5058411;28;20040;-72
2022/11/09 02:46:10;;;;;;;13.95;4.18;;;11.10;99.90;;;;;;5058664;28;20067;-71
2022/11/09 02:48:36;;;;;;;9.68;3.85;;;11.10;99.90;;;;;;5041756;28;20453;-71
2022/11/09 02:51:01;;;;;;;12.20;3.97;;;11.00;99.90;;;;;;5058478;28;20124;-72
2022/11/09 02:53:27;;;;;;;18.60;4.10;;;10.90;99.90;;;;;;5058398;28;20049;-72
2022/11/09 02:55:53;;;;;;;12.85;4.47;;;11.00;99.90;;;;;;5058500;28;20036;-71
2022/11/09 02:58:18;;;;;;;9.25;3.45;;;10.90;99.90;;;;;;5040801;28;20045;-72
2022/11/09 03:00:44;;;;;;;13.18;4.40;;;10.90;99.90;;;;;;5057910;28;20342;-73
2022/11/09 03:03:09;;;;;;;12.82;3.58;;;10.90;99.90;;;;;;5058140;28;20041;-72
2022/11/09 03:05:36;;;;;;;11.27;3.78;;;11.30;99.90;;;;;;5040542;28;20048;-72
2022/11/09 03:08:02;;;;;;;13.80;4.00;;;10.90;99.90;;;;;;5058212;28;20120;-72
2022/11/09 03:10:28;;;;;;;11.30;3.88;;;10.90;99.90;;;;;;5058242;28;20064;-72
2022/11/09 03:12:53;;;;;;;16.10;3.85;;;10.90;99.90;;;;;;5057871;28;20135;-72
2022/11/09 03:15:19;;;;;;;11.13;3.47;;;10.90;99.90;;;;;;5057636;28;20453;-71
2022/11/09 03:17:45;;;;;;;11.13;3.40;;;10.90;99.90;;;;;;5039853;28;20364;-72
2022/11/09 03:20:10;;;;;;;12.27;3.88;;;10.90;99.90;;;;;;5058011;28;20099;-72
2022/11/09 03:22:36;;;;;;;13.45;3.50;;;10.90;99.90;;;;;;5039997;28;20053;-71
2022/11/09 03:25:05;;;;;;;10.88;3.88;;;11.00;99.90;;;;;;5057934;28;20037;-72
2022/11/09 03:27:31;;;;;;;15.77;3.65;;;10.90;99.90;;;;;;5057841;28;20033;-73
2022/11/09 03:29:56;;;;;;;17.65;4.38;;;10.90;99.90;;;;;;5058004;28;20127;-72
2022/11/09 03:32:22;;;;;;;12.25;3.63;;;10.90;99.90;;;;;;5057498;28;20041;-72
2022/11/09 03:34:50;;;;;;;13.20;3.45;;;10.90;99.90;;;;;;5057337;28;20083;-72
2022/11/09 03:37:15;;;;;;;14.07;3.75;;;10.90;99.90;;;;;;5057923;28;20048;-72
2022/11/09 03:39:41;;;;;;;12.20;3.42;;;10.90;99.90;;;;;;5057599;28;20037;-71
2022/11/09 03:42:07;;;;;;;11.27;3.80;;;10.90;99.90;;;;;;5057450;28;20187;-73
2022/11/09 03:44:32;;;;;;;19.33;4.00;;;10.90;99.90;;;;;;5057642;28;20033;-73
2022/11/09 03:46:58;;;;;;;14.82;3.95;;;11.00;99.90;;;;;;5057115;28;20411;-72
2022/11/09 03:49:23;;;;;;;14.43;3.53;;;10.90;99.90;;;;;;5040528;28;20053;-72
2022/11/09 03:51:50;;;;;;;15.25;3.40;;;10.90;99.90;;;;;;5057651;28;20079;-72
2022/11/09 03:54:18;;;;;;;19.17;4.20;;;11.10;99.90;;;;;;5057572;28;20107;-72
2022/11/09 03:56:44;;;;;;;15.60;3.67;;;11.00;99.90;;;;;;5056904;28;20378;-72
2022/11/09 03:59:09;;;;;;;12.85;3.83;;;10.80;99.90;;;;;;5039585;28;20045;-72
2022/11/09 04:01:35;;;;;;;12.05;3.40;;;10.80;99.90;;;;;;5056730;28;20477;-71
2022/11/09 04:04:00;;;;;;;15.75;3.75;;;10.80;99.90;;;;;;5023141;28;20037;-71
2022/11/09 04:06:26;;;;;;;14.48;3.42;;;10.80;99.90;;;;;;5039326;28;20060;-71
2022/11/09 04:08:51;;;;;;;10.10;3.65;;;10.80;99.90;;;;;;5057162;28;20376;-71
2022/11/09 04:11:17;;;;;;;12.35;3.30;;;10.80;99.90;;;;;;5057128;28;20051;-72
2022/11/09 04:13:43;;;;;;;13.02;3.65;;;10.80;99.90;;;;;;5057059;28;20442;-72
2022/11/09 04:16:08;;;;;;;11.48;3.42;;;10.80;99.90;;;;;;5056488;28;20048;-72
2022/11/09 04:18:34;;;;;;;14.55;3.33;;;11.00;99.90;;;;;;5039299;28;20136;-71
2022/11/09 04:20:59;;;;;;;15.25;3.72;;;10.90;99.90;;;;;;5056729;28;20047;-72
2022/11/09 04:23:25;;;;;;;11.07;3.53;;;10.60;99.90;;;;;;5057009;28;20045;-71
2022/11/09 04:25:50;;;;;;;11.18;3.15;;;10.70;99.90;;;;;;5056841;28;20045;-72
2022/11/09 04:28:16;;;;;;;14.68;3.45;;;10.60;99.90;;;;;;5056625;28;20041;-72
2022/11/09 04:30:42;;;;;;;11.88;3.58;;;10.60;99.90;;;;;;5056068;28;20102;-72
2022/11/09 04:33:08;;;;;;;15.52;3.85;;;10.60;99.90;;;;;;5055885;28;20119;-73
2022/11/09 04:35:34;;;;;;;26.17;4.10;;;10.60;99.90;;;;;;5056565;28;20063;-72
2022/11/09 04:38:03;;;;;;;14.25;3.53;;;10.60;99.90;;;;;;5056658;28;20433;-72
2022/11/09 04:40:31;;;;;;;14.27;3.53;;;10.50;99.90;;;;;;5056450;28;20043;-72
2022/11/09 04:43:00;;;;;;;13.27;3.58;;;10.60;99.90;;;;;;5055965;28;20048;-72
2022/11/09 04:45:26;;;;;;;14.18;3.38;;;10.60;99.90;;;;;;5056089;28;20076;-72
2022/11/09 04:48:04;;;;;;;10.93;3.78;;;10.60;99.90;;;;;;5056415;28;20426;-71
2022/11/09 04:50:30;;;;;;;14.73;4.25;;;10.60;99.90;;;;;;5022492;28;20057;-72
2022/11/09 04:53:06;;;;;;;12.20;3.60;;;10.60;99.90;;;;;;5056123;28;20033;-71
2022/11/09 04:55:32;;;;;;;10.40;3.38;;;10.70;99.90;;;;;;5056414;28;20076;-71
2022/11/09 04:57:58;;;;;;;13.00;3.47;;;10.70;99.90;;;;;;5056593;28;20071;-72
2022/11/09 05:00:23;;;;;;;13.73;3.35;;;10.80;99.90;;;;;;5055891;28;20449;-72
2022/11/09 05:02:49;;;;;;;10.43;3.22;;;10.80;99.90;;;;;;5055638;28;20052;-72
2022/11/09 05:05:14;;;;;;;10.25;3.60;;;10.80;99.90;;;;;;5055696;28;20040;-73
2022/11/09 05:07:40;;;;;;;12.88;3.78;;;10.90;99.90;;;;;;5054220;28;20124;-73
2022/11/09 05:10:06;;;;;;;9.98;3.35;;;10.90;99.90;;;;;;5040270;28;20045;-73
2022/11/09 05:12:31;;;;;;;14.90;4.00;;;11.00;99.90;;;;;;5037845;28;20052;-72
2022/11/09 05:14:57;;;;;;;15.13;3.90;;;11.00;99.90;;;;;;5038225;28;20037;-74
2022/11/09 05:17:23;;;;;;;11.20;3.67;;;11.00;99.90;;;;;;5055716;28;20044;-72
2022/11/09 05:19:48;;;;;;;10.38;3.80;;;11.10;99.90;;;;;;5055894;28;20352;-72
2022/11/09 05:24:58;;;;;;;15.63;3.83;;;11.10;99.90;;;;;;5028626;28;20056;-72
2022/11/09 05:27:24;;;;;;;9.45;3.40;;;11.10;99.90;;;;;;5054484;28;20025;-72
2022/11/09 05:29:49;;;;;;;11.93;3.38;;;11.20;99.90;;;;;;5055374;28;20052;-73
2022/11/09 05:32:18;;;;;;;16.58;3.25;;;11.50;99.90;;;;;;5055118;28;20041;-74
2022/11/09 05:34:44;;;;;;;12.65;3.50;;;11.30;99.90;;;;;;5041422;28;20183;-72
2022/11/09 05:37:09;;;;;;;13.52;3.70;;;11.30;99.90;;;;;;5035735;28;20100;-71
2022/11/09 05:39:35;;;;;;;13.70;3.33;;;11.30;99.90;;;;;;5055120;28;20037;-72
2022/11/09 05:42:00;;;;;;;12.70;3.58;;;11.40;99.90;;;;;;5055393;28;20429;-69
2022/11/09 05:44:26;;;;;;;11.00;3.25;;;11.20;99.90;;;;;;5038037;28;20052;-72
2022/11/09 05:46:51;;;;;;;9.73;3.58;;;11.20;99.90;;;;;;5037707;28;20135;-72
2022/11/09 05:49:17;;;;;;;12.98;3.67;;;11.20;99.90;;;;;;5031818;28;20029;-72
2022/11/09 05:51:43;;;;;;;11.57;3.47;;;11.20;99.90;;;;;;5051369;28;20376;-73
2022/11/09 05:54:08;;;;;;;14.95;3.75;;;11.10;99.90;;;;;;5035298;28;20045;-72
2022/11/09 05:56:34;;;;;;;9.63;3.42;;;11.10;99.90;;;;;;5048158;28;20419;-70
2022/11/09 05:58:59;;;;;;;10.95;3.72;;;11.10;99.90;;;;;;5054834;28;20408;-70
2022/11/09 06:01:25;;;;;;;12.02;3.42;;;11.00;99.90;;;;;;5036988;28;20483;-70
2022/11/09 06:03:53;;;;;;;14.20;4.20;;;11.20;99.90;;;;;;5053207;28;20045;-70
2022/11/09 06:06:18;;;;;;;12.43;3.08;;;11.00;99.90;;;;;;5036664;28;20044;-71
2022/11/09 06:08:44;;;;;;;12.02;3.92;;;11.10;99.90;;;;;;5052884;28;20033;-71
2022/11/09 06:11:11;;;;;;;10.60;3.55;;;11.30;99.90;;;;;;5036640;28;20041;-71
2022/11/09 06:13:37;;;;;;;14.30;3.78;;;11.00;99.90;;;;;;5017546;28;20128;-71
2022/11/09 06:16:04;;;;;;;12.60;3.70;;;10.90;99.90;;;;;;5040428;28;20126;-70
2022/11/09 06:18:31;;;;;;;17.52;3.83;;;10.90;99.90;;;;;;5055255;28;20048;-68
2022/11/09 06:20:59;;;;;;;12.85;3.50;;;10.90;99.90;;;;;;5053059;28;20040;-69
2022/11/09 06:23:26;;;;;;;11.90;3.30;;;10.90;99.90;;;;;;5054424;28;20368;-68
2022/11/09 06:25:52;;;;;;;12.05;3.28;;;10.80;99.90;;;;;;5053238;28;20032;-68
2022/11/09 06:28:18;;;;;;;11.23;3.90;;;10.80;99.90;;;;;;5017501;28;20045;-69
2022/11/09 06:30:44;;;;;;;12.77;4.38;;;10.80;99.90;;;;;;5034936;28;20385;-69
2022/11/09 06:33:10;;;;;;;10.75;3.50;;;10.80;99.90;;;;;;5035729;28;20049;-69
2022/11/09 06:35:35;;;;;;;12.55;3.78;;;10.80;99.90;;;;;;5043696;28;20119;-68
2022/11/09 06:38:01;;;;;;;13.65;3.67;;;10.80;99.90;;;;;;5054266;28;20069;-70
2022/11/09 06:40:27;;;;;;;9.75;3.28;;;10.80;99.90;;;;;;5049294;28;20048;-72
2022/11/09 06:42:57;;;;;;;17.00;4.03;;;10.80;99.90;;;;;;5036903;28;20069;-71
2022/11/09 06:45:22;;;;;;;13.02;3.70;;;10.80;99.90;;;;;;5017224;28;20042;-71
2022/11/09 06:47:48;;;;;;;11.00;3.30;;;10.80;99.90;;;;;;5034787;28;20490;-71
2022/11/09 06:50:13;;;;;;;12.30;3.58;;;10.70;99.90;;;;;;5034591;28;20472;-70
2022/11/09 06:52:39;;;;;;;15.20;3.33;;;10.80;99.90;;;;;;5034390;28;20445;-71
2022/11/09 06:55:07;;;;;;;15.13;3.75;;;10.70;99.90;;;;;;5044651;28;20067;-71
2022/11/09 06:57:32;;;;;;;12.15;3.28;;;10.70;99.90;;;;;;5022003;28;20094;-70
2022/11/09 06:59:59;;;;;;;14.90;3.80;;;10.70;99.90;;;;;;5034567;28;20509;-70
2022/11/09 07:02:28;;;;;;;13.52;3.33;;;10.70;99.90;;;;;;5034445;28;20046;-71
2022/11/09 07:04:53;;;;;;;13.77;3.72;;;10.80;99.90;;;;;;5034506;28;20051;-71
2022/11/09 07:07:19;;;;;;;11.23;3.90;;;10.80;99.90;;;;;;5052176;28;20041;-72
2022/11/09 07:09:44;;;;;;;12.20;3.47;;;10.90;99.90;;;;;;5047941;28;20049;-71
2022/11/09 07:12:10;;;;;;;13.25;3.60;;;10.90;99.90;;;;;;5045922;28;20029;-72
2022/11/09 07:14:35;;;;;;;13.38;3.70;;;10.90;99.90;;;;;;5040544;28;20051;-70
2022/11/09 07:17:01;;;;;;;11.88;2.97;;;11.00;99.90;;;;;;5057646;28;20163;-72
2022/11/09 07:19:30;;;;;;;14.40;3.53;;;10.90;99.90;;;;;;5052207;28;20072;-71
2022/11/09 07:21:56;;;;;;;11.95;3.35;;;10.90;99.90;;;;;;5037481;28;20045;-70
2022/11/09 07:24:22;;;;;;;16.95;3.55;;;10.90;99.90;;;;;;5038779;28;20053;-71
2022/11/09 07:26:48;;;;;;;16.73;3.63;;;10.90;99.90;;;;;;5042784;28;20049;-72
2022/11/09 07:29:15;;;;;;;12.43;3.65;;;10.80;99.90;;;;;;5057993;28;20114;-71
2022/11/09 07:31:40;;;;;;;14.98;3.65;;;10.80;99.90;;;;;;5057524;28;20120;-70
2022/11/09 07:34:06;;;;;;;20.40;4.18;;;10.80;99.90;;;;;;5055484;28;20088;-70
2022/11/09 07:36:32;;;;;;;12.85;3.20;;;10.80;99.90;;;;;;5022760;28;20445;-71
2022/11/09 07:38:57;;;;;;;18.80;4.13;;;10.80;99.90;;;;;;5057748;28;20056;-71
2022/11/09 07:41:23;;;;;;;16.17;3.65;;;10.80;99.90;;;;;;5027050;28;20511;-71
2022/11/09 07:43:49;;;;;;;16.10;3.90;;;10.80;99.90;;;;;;5057527;28;20054;-72
2022/11/09 07:46:15;;;;;;;12.40;2.88;;;10.80;99.90;;;;;;5050399;28;20048;-71
2022/11/09 07:48:40;;;;;;;13.77;3.17;;;10.80;99.90;;;;;;5037789;28;20449;-72
2022/11/09 07:51:06;;;;;;;16.85;3.95;;;10.80;99.90;;;;;;5048344;28;20045;-71
2022/11/09 07:53:33;;;;;;;12.52;3.85;;;10.90;99.90;;;;;;5056791;28;20037;-71
2022/11/09 07:56:00;;;;;;;12.00;3.20;;;10.90;99.90;;;;;;5022880;28;20048;-71
2022/11/09 07:58:26;;;;;;;16.73;3.50;;;10.90;99.90;;;;;;5057114;28;20068;-71
2022/11/09 08:00:52;;;;;;;17.70;3.58;;;10.90;99.90;;;;;;5022422;28;20049;-72
2022/11/09 08:03:19;;;;;;;11.20;3.30;;;11.00;99.90;;;;;;5055524;28;20048;-71
2022/11/09 08:05:44;;;;;;;12.07;3.15;;;11.00;99.90;;;;;;5010961;28;20038;-71
2022/11/09 08:08:11;;;;;;;13.95;3.17;;;11.00;99.90;;;;;;5038206;28;20102;-71
2022/11/09 08:10:41;;;;;;;12.25;3.65;;;11.00;99.90;;;;;;5041741;28;20052;-72
2022/11/09 08:13:10;;;;;;;14.18;3.58;;;11.10;99.90;;;;;;5018003;28;20033;-72
2022/11/09 08:15:37;;;;;;;15.73;3.85;;;11.10;99.90;;;;;;5036828;28;20046;-70
2022/11/09 08:18:06;;;;;;;15.98;3.65;;;11.20;99.90;;;;;;5036795;28;20358;-71
2022/11/09 08:20:32;;;;;;;14.95;3.90;;;11.10;99.90;;;;;;5036505;28;20132;-71
2022/11/09 08:22:58;;;;;;;14.35;3.70;;;11.20;99.90;;;;;;5036638;28;20354;-71
2022/11/09 08:25:23;;;;;;;14.57;3.45;;;11.20;99.90;;;;;;5038431;28;20116;-70
2022/11/09 08:27:49;;;;;;;17.17;3.67;;;11.20;99.90;;;;;;5047468;28;20053;-72
2022/11/09 08:30:19;;;;;;;18.05;4.50;;;11.30;99.90;;;;;;5036504;28;20049;-71
2022/11/09 08:32:47;;;;;;;15.63;4.20;;;11.20;99.90;;;;;;5052745;28;20041;-72
2022/11/09 08:35:16;;;;;;;13.50;4.18;;;11.20;99.90;;;;;;5057016;28;20057;-72
2022/11/09 08:37:43;;;;;;;12.82;4.05;;;11.30;99.90;;;;;;5056524;28;20053;-70
2022/11/09 08:40:09;;;;;;;13.50;3.58;;;11.30;99.90;;;;;;5038799;28;20049;-72
2022/11/09 08:42:35;;;;;;;17.35;3.92;;;11.30;99.90;;;;;;5055464;28;20037;-71
2022/11/09 08:45:01;;;;;;;16.33;4.32;;;11.40;99.90;;;;;;5021468;28;20488;-70
2022/11/09 08:47:28;;;;;;;16.50;3.80;;;11.70;99.90;;;;;;5036249;28;20029;-71
2022/11/09 08:49:54;;;;;;;15.70;3.97;;;11.40;99.90;;;;;;5036231;28;20042;-70
2022/11/09 08:52:20;;;;;;;14.93;4.30;;;11.40;99.90;;;;;;5036293;28;20053;-71
2022/11/09 08:54:45;;;;;;;15.75;4.28;;;11.40;99.90;;;;;;5036259;28;20048;-70
2022/11/09 08:57:11;;;;;;;15.35;3.60;;;11.40;99.90;;;;;;5014702;28;20114;-72
2022/11/09 08:59:40;;;;;;;12.98;4.20;;;11.40;99.90;;;;;;5055824;28;20506;-70
2022/11/09 09:02:05;;;;;;;15.10;3.70;;;11.50;99.90;;;;;;5055458;28;20041;-71
2022/11/09 09:04:31;;;;;;;15.27;4.18;;;11.50;99.90;;;;;;5053817;28;20059;-71
2022/11/09 09:06:58;;;;;;;16.77;4.10;;;11.50;99.90;;;;;;5054223;28;20048;-70
2022/11/09 09:09:24;;;;;;;20.98;4.25;;;11.60;99.90;;;;;;5048058;28;20039;-70
2022/11/09 09:11:50;;;;;;;14.38;3.92;;;11.70;99.90;;;;;;5042576;28;20449;-70
2022/11/09 09:14:15;;;;;;;15.38;4.53;;;11.70;99.90;;;;;;5020929;28;20052;-71
2022/11/09 09:16:41;;;;;;;17.73;4.43;;;12.00;99.90;;;;;;5042426;28;20079;-71
2022/11/09 09:19:07;;;;;;;15.70;4.65;;;11.70;99.90;;;;;;5035782;28;20453;-70
2022/11/09 09:21:32;;;;;;;13.27;3.78;;;11.70;99.90;;;;;;5035617;28;20046;-72
2022/11/09 09:23:58;;;;;;;14.73;4.60;;;11.80;99.90;;;;;;5035866;28;20049;-70
2022/11/09 09:26:23;;;;;;;17.25;4.45;;;11.80;99.90;;;;;;5038314;28;20134;-71
2022/11/09 09:28:50;;;;;;;18.15;5.30;;;11.80;99.90;;;;;;5055139;28;20465;-71
2022/11/09 09:31:16;;;;;;;17.33;5.28;;;11.90;99.90;;;;;;5020634;28;20048;-71
2022/11/09 09:33:42;;;;;;;17.05;4.70;;;12.00;99.90;;;;;;5053569;28;20045;-71
2022/11/09 09:36:17;;;;;;;9.00;4.15;;;12.00;99.90;;;;;;5055016;28;20060;-72
2022/11/09 09:38:42;;;;;;;17.58;4.30;;;12.00;99.90;;;;;;5035764;28;20095;-72
2022/11/09 09:41:36;;;;;;;13.70;4.10;;;12.30;99.90;;;;;;5035276;28;20462;-72
2022/11/09 09:44:28;;;;;;;15.32;4.28;;;12.10;99.90;;;;;;5010202;28;20049;-71
2022/11/09 09:47:32;;;;;;;13.82;4.00;;;12.30;99.90;;;;;;5006768;28;20490;-71
2022/11/09 09:50:13;;;;;;;13.48;4.35;;;12.30;99.90;;;;;;5054510;28;20048;-71
2022/11/09 09:53:02;;;;;;;19.13;4.90;;;12.40;99.90;;;;;;5038534;28;20072;-70
2022/11/09 09:55:35;;;;;;;12.90;4.45;;;12.40;99.90;;;;;;5054705;28;20033;-72
2022/11/09 09:58:11;;;;;;;16.95;4.40;;;12.40;99.90;;;;;;5055290;28;20113;-71
2022/11/09 10:00:46;;;;;;;16.02;4.35;;;12.50;99.90;;;;;;5044794;28;20403;-71
2022/11/09 10:03:19;;;;;;;16.10;4.40;;;12.50;99.90;;;;;;5040621;28;20112;-71
2022/11/09 10:06:07;;;;;;;13.10;4.50;;;12.60;99.90;;;;;;5036826;28;20457;-71
2022/11/09 10:08:49;;;;;;;16.73;5.00;;;12.60;99.90;;;;;;5054278;28;20060;-71
2022/11/09 10:11:36;;;;;;;12.15;3.97;;;12.70;99.90;;;;;;5045239;28;20033;-71
2022/11/09 10:14:25;;;;;;;13.98;4.53;;;12.70;99.90;;;;;;5035021;28;20049;-71
2022/11/09 10:17:08;;;;;;;18.92;4.95;;;12.70;99.90;;;;;;5034858;28;20037;-73
2022/11/09 10:20:12;;;;;;;10.85;4.13;;;12.90;99.90;;;;;;5047297;28;20097;-70
2022/11/09 10:23:07;;;;;;;16.52;4.50;;;13.00;99.90;;;;;;5054592;28;20123;-71
2022/11/09 10:25:42;;;;;;;16.10;4.55;;;13.10;99.90;;;;;;5046039;28;20167;-71
2022/11/09 10:28:13;;;;;;;13.32;3.60;;;13.20;99.90;;;;;;5034710;28;20040;-71
2022/11/09 10:30:40;;;;;;;13.23;4.30;;;13.20;99.90;;;;;;5034743;28;20037;-71
2022/11/09 10:33:17;;;;;;;14.02;4.40;;;13.30;99.90;;;;;;5035610;28;20049;-72
2022/11/09 10:35:44;;;;;;;12.75;3.90;;;13.40;99.90;;;;;;5034881;28;20132;-72
2022/11/09 10:38:22;;;;;;;15.43;4.45;;;13.40;99.90;;;;;;5049614;28;20059;-71
2022/11/09 10:41:03;;;;;;;14.75;4.60;;;13.40;99.90;;;;;;5038495;28;20041;-72
2022/11/09 10:43:28;;;;;;;14.07;4.47;;;13.50;99.90;;;;;;5040693;28;20416;-73
2022/11/09 10:46:03;;;;;;;14.23;4.22;;;13.50;99.90;;;;;;5046610;28;20116;-73
2022/11/09 10:48:41;;;;;;;16.42;4.57;;;13.70;99.90;;;;;;5054784;28;20075;-70
2022/11/09 10:51:41;;;;;;;12.27;4.20;;;13.50;99.90;;;;;;5052695;28;20112;-72
2022/11/09 10:54:22;;;;;;;12.95;4.32;;;13.60;99.90;;;;;;5038509;28;20049;-70
2022/11/09 10:56:51;;;;;;;14.10;5.18;;;13.60;99.90;;;;;;5040128;28;20463;-71
2022/11/09 10:59:40;;;;;;;14.18;4.43;;;13.70;99.90;;;;;;5040798;28;20480;-71
2022/11/09 11:02:29;;;;;;;14.65;3.88;;;13.70;99.90;;;;;;5058331;28;20051;-72
2022/11/09 11:05:04;;;;;;;14.07;3.80;;;13.70;99.90;;;;;;5025923;28;20053;-71
2022/11/09 11:07:29;;;;;;;12.85;4.40;;;13.80;99.90;;;;;;5020824;28;20069;-72
2022/11/09 11:10:07;;;;;;;16.40;4.63;;;14.00;99.90;;;;;;5039355;28;20060;-71
2022/11/09 11:12:33;;;;;;;14.75;4.50;;;13.90;99.90;;;;;;5038605;28;20386;-71
2022/11/09 11:14:59;;;;;;;12.00;4.15;;;13.90;99.90;;;;;;5130493;22;20081;-70
2022/11/09 11:17:28;;;;;;;17.20;4.63;;;13.80;99.90;;;;;;5038084;28;20038;-72
2022/11/09 11:19:53;;;;;;;15.10;4.65;;;13.90;99.90;;;;;;5020272;28;20053;-72
2022/11/09 11:22:22;;;;;;;14.95;4.43;;;13.90;99.90;;;;;;5038264;28;20056;-72
2022/11/09 11:25:08;;;;;;;14.48;4.03;;;13.90;99.90;;;;;;5057193;28;20048;-72
2022/11/09 11:27:47;;;;;;;15.18;4.00;;;13.70;99.90;;;;;;5020947;28;20042;-71
2022/11/09 11:30:14;;;;;;;14.40;4.43;;;14.00;99.90;;;;;;5039788;28;20044;-71
2022/11/09 11:32:43;;;;;;;10.52;3.63;;;14.00;99.90;;;;;;5021395;28;20072;-71
2022/11/09 11:35:15;;;;;;;15.27;4.40;;;14.10;99.90;;;;;;5046766;28;20053;-72
2022/11/09 11:37:47;;;;;;;16.33;4.50;;;14.10;99.90;;;;;;5025792;28;20032;-73
2022/11/09 11:40:31;;;;;;;15.77;3.97;;;14.00;99.90;;;;;;5047066;28;20053;-72
2022/11/09 11:43:12;;;;;;;15.52;4.47;;;14.00;99.90;;;;;;5037457;28;20049;-72
2022/11/09 11:45:42;;;;;;;14.82;4.38;;;14.10;99.90;;;;;;5054811;28;20045;-73
2022/11/09 11:48:20;;;;;;;13.55;4.13;;;14.10;99.90;;;;;;5037461;28;20046;-71
2022/11/09 11:51:07;;;;;;;13.85;4.18;;;14.30;99.90;;;;;;5037559;28;20038;-72
2022/11/09 11:54:13;;;;;;;14.70;3.75;;;14.10;99.90;;;;;;5037027;28;20045;-71
2022/11/09 11:56:47;;;;;;;12.15;3.90;;;14.10;99.90;;;;;;5003342;28;20049;-72
2022/11/09 11:59:48;;;;;;;15.40;3.78;;;14.20;99.90;;;;;;5036937;28;20041;-73
2022/11/09 12:02:44;;;;;;;12.52;3.80;;;14.20;99.90;;;;;;4965578;28;20031;-71
2022/11/09 12:06:00;;;;;;;11.13;3.50;;;14.20;99.90;;;;;;5056712;28;20060;-72
2022/11/09 12:08:44;;;;;;;15.80;3.92;;;14.20;99.90;;;;;;5012520;28;20441;-72
2022/11/09 12:11:35;;;;;;;13.65;4.22;;;14.20;99.90;;;;;;5051991;28;20041;-72
2022/11/09 12:14:22;;;;;;;15.82;4.15;;;14.10;99.90;;;;;;5056855;28;20049;-72
2022/11/09 12:17:02;;;;;;;13.82;3.83;;;14.00;99.90;;;;;;5043741;28;20049;-73
2022/11/09 12:19:33;;;;;;;12.85;3.95;;;13.90;99.90;;;;;;5052119;28;20045;-72
2022/11/09 12:22:26;;;;;;;14.45;3.95;;;13.90;99.90;;;;;;5036663;28;20076;-71
2022/11/09 12:25:10;;;;;;;12.48;3.38;;;13.80;99.90;;;;;;5037071;28;20042;-72
2022/11/09 12:28:05;;;;;;;13.20;3.60;;;13.80;99.90;;;;;;5051548;28;20128;-72
2022/11/09 12:30:45;;;;;;;19.88;4.18;;;13.70;99.90;;;;;;5038161;28;20049;-71
2022/11/09 12:33:25;;;;;;;11.82;3.83;;;13.70;99.90;;;;;;5054632;28;20037;-73
2022/11/09 12:36:05;;;;;;;18.90;3.42;;;13.60;99.90;;;;;;5055745;28;20025;-71
2022/11/09 12:38:53;;;;;;;14.40;3.85;;;13.60;99.90;;;;;;5056530;28;20044;-73
2022/11/09 12:41:22;;;;;;;14.10;4.22;;;13.70;99.90;;;;;;5048096;28;20046;-72
2022/11/09 12:43:56;;;;;;;15.95;3.83;;;14.00;99.90;;;;;;5018882;28;20037;-71
2022/11/09 12:46:28;;;;;;;13.95;3.45;;;13.80;99.90;;;;;;5036563;28;20072;-72
2022/11/09 12:48:57;;;;;;;12.55;3.80;;;13.90;99.90;;;;;;5036525;28;20341;-72
2022/11/09 12:51:23;;;;;;;10.23;3.20;;;14.00;99.90;;;;;;5044671;28;20037;-71
2022/11/09 12:53:49;;;;;;;10.95;2.80;;;14.10;99.90;;;;;;5036460;28;20142;-73